createdAt,value
2023-04-14T00:00:06.848Z,55.29
2023-04-14T00:02:40.505Z,55.69
2023-04-14T00:05:09.695Z,55.87
2023-04-14T00:07:37.674Z,56.00
2023-04-14T00:10:07.870Z,55.86
2023-04-14T00:12:38.540Z,56.13
2023-04-14T00:15:07.848Z,55.80
2023-04-14T00:17:38.428Z,56.27
2023-04-14T00:20:08.344Z,56.12
2023-04-14T00:22:36.528Z,56.31
2023-04-14T00:25:06.573Z,56.40
2023-04-14T00:27:34.615Z,56.20
2023-04-14T00:30:03.544Z,55.69
2023-04-14T00:32:33.762Z,55.92
2023-04-14T00:35:03.714Z,55.87
2023-04-14T00:37:31.792Z,55.81
2023-04-14T00:40:01.408Z,55.45
2023-04-14T00:42:31.950Z,55.83
2023-04-14T00:45:00.675Z,55.43
2023-04-14T00:47:28.977Z,55.80
2023-04-14T00:49:57.288Z,55.57
2023-04-14T00:52:25.541Z,55.40
2023-04-14T00:54:53.549Z,55.19
2023-04-14T00:57:21.622Z,55.55
2023-04-14T00:59:50.944Z,55.19
2023-04-14T01:02:19.011Z,55.36
2023-04-14T01:04:54.382Z,55.16
2023-04-14T01:07:23.275Z,55.31
2023-04-14T01:09:51.276Z,55.42
2023-04-14T01:12:27.911Z,55.66
2023-04-14T01:15:06.381Z,55.59
2023-04-14T01:17:38.725Z,55.65
2023-04-14T01:20:10.864Z,55.52
2023-04-14T01:22:40.522Z,55.40
2023-04-14T01:25:19.207Z,55.76
2023-04-14T01:27:54.282Z,55.74
2023-04-14T01:30:44.676Z,55.75
2023-04-14T01:33:18.398Z,55.62
2023-04-14T01:35:47.112Z,56.05
2023-04-14T01:38:18.763Z,56.00
2023-04-14T01:40:51.038Z,56.08
2023-04-14T01:43:19.123Z,56.19
2023-04-14T01:45:51.471Z,56.18
2023-04-14T01:48:21.080Z,56.37
2023-04-14T01:50:49.046Z,56.43
2023-04-14T01:53:18.036Z,56.07
2023-04-14T01:55:47.414Z,56.38
2023-04-14T01:58:15.806Z,56.11
2023-04-14T02:00:43.949Z,56.15
2023-04-14T02:03:12.102Z,56.00
2023-04-14T02:05:43.395Z,55.97
2023-04-14T02:08:13.793Z,56.05
2023-04-14T02:10:45.627Z,56.12
2023-04-14T02:13:15.317Z,56.44
2023-04-14T02:15:43.429Z,56.40
2023-04-14T02:18:12.031Z,56.30
2023-04-14T02:20:44.955Z,56.00
2023-04-14T02:23:12.967Z,56.13
2023-04-14T02:25:42.847Z,56.34
2023-04-14T02:28:15.682Z,56.19
2023-04-14T02:30:43.825Z,56.24
2023-04-14T02:33:16.114Z,56.57
2023-04-14T02:35:47.759Z,56.43
2023-04-14T02:38:19.895Z,56.39
2023-04-14T02:40:47.952Z,55.99
2023-04-14T02:43:18.851Z,56.29
2023-04-14T02:45:49.023Z,56.03
2023-04-14T02:48:17.498Z,56.03
2023-04-14T02:50:50.423Z,56.56
2023-04-14T02:53:24.107Z,56.32
2023-04-14T02:56:04.653Z,56.40
2023-04-14T02:58:38.016Z,56.19
2023-04-14T03:01:06.489Z,56.10
2023-04-14T03:03:38.466Z,55.79
2023-04-14T03:06:12.189Z,55.68
2023-04-14T03:08:41.254Z,55.71
2023-04-14T03:11:09.459Z,55.75
2023-04-14T03:13:37.983Z,55.70
2023-04-14T03:16:08.354Z,55.23
2023-04-14T03:18:37.007Z,55.44
2023-04-14T03:21:05.147Z,55.31
2023-04-14T03:23:35.059Z,55.50
2023-04-14T03:26:07.039Z,55.57
2023-04-14T03:28:37.638Z,55.55
2023-04-14T03:31:06.523Z,55.48
2023-04-14T03:33:41.988Z,54.94
2023-04-14T03:36:12.983Z,55.50
2023-04-14T03:38:42.680Z,55.24
2023-04-14T03:41:10.772Z,55.22
2023-04-14T03:43:40.289Z,55.12
2023-04-14T03:46:12.182Z,55.37
2023-04-14T03:48:42.795Z,55.30
2023-04-14T03:51:14.330Z,55.41
2023-04-14T03:53:44.847Z,55.39
2023-04-14T03:56:14.401Z,55.00
2023-04-14T03:58:42.408Z,55.49
2023-04-14T04:01:10.630Z,55.45
2023-04-14T04:03:41.516Z,55.43
2023-04-14T04:06:09.637Z,55.51
2023-04-14T04:08:37.519Z,55.30
2023-04-14T04:11:07.786Z,55.28
2023-04-14T04:13:36.728Z,55.48
2023-04-14T04:16:05.253Z,55.39
2023-04-14T04:18:33.941Z,55.81
2023-04-14T04:21:02.290Z,55.75
2023-04-14T04:23:31.557Z,55.83
2023-04-14T04:25:59.580Z,55.49
2023-04-14T04:28:36.514Z,55.82
2023-04-14T04:31:32.849Z,55.68
2023-04-14T04:34:03.099Z,55.82
2023-04-14T04:36:32.925Z,55.42
2023-04-14T04:39:01.285Z,55.61
2023-04-14T04:41:37.842Z,55.84
2023-04-14T04:44:07.398Z,55.74
2023-04-14T04:47:05.476Z,55.31
2023-04-14T04:49:34.959Z,55.27
2023-04-14T04:52:04.928Z,55.49
2023-04-14T04:54:32.964Z,55.49
2023-04-14T04:57:00.953Z,55.29
2023-04-14T04:59:30.271Z,55.45
2023-04-14T05:01:58.321Z,55.12
2023-04-14T05:04:26.560Z,55.41
2023-04-14T05:06:54.592Z,54.99
2023-04-14T05:09:23.865Z,55.25
2023-04-14T05:11:53.458Z,55.17
2023-04-14T05:14:21.606Z,55.33
2023-04-14T05:16:51.173Z,55.50
2023-04-14T05:19:19.173Z,55.35
2023-04-14T05:21:48.424Z,55.05
2023-04-14T05:24:16.478Z,55.45
2023-04-14T05:26:57.591Z,55.34
2023-04-14T05:29:35.743Z,55.49
2023-04-14T05:32:04.998Z,55.27
2023-04-14T05:34:32.924Z,55.23
2023-04-14T05:37:01.209Z,55.32
2023-04-14T05:39:29.108Z,55.46
2023-04-14T05:41:57.110Z,55.50
2023-04-14T05:44:25.455Z,55.75
2023-04-14T05:46:53.561Z,55.91
2023-04-14T05:49:22.878Z,55.85
2023-04-14T05:51:50.976Z,55.67
2023-04-14T05:54:18.945Z,55.90
2023-04-14T05:56:47.149Z,55.84
2023-04-14T05:59:16.274Z,56.16
2023-04-14T06:01:44.289Z,56.10
2023-04-14T06:04:12.517Z,56.03
2023-04-14T06:06:42.392Z,56.43
2023-04-14T06:09:10.460Z,56.20
2023-04-14T06:11:41.790Z,56.65
2023-04-14T06:14:10.327Z,56.65
2023-04-14T06:16:38.325Z,56.45
2023-04-14T06:19:06.429Z,56.71
2023-04-14T06:21:34.396Z,56.40
2023-04-14T06:24:04.807Z,56.49
2023-04-14T06:26:33.111Z,56.25
2023-04-14T06:29:01.793Z,56.72
2023-04-14T06:31:29.958Z,57.04
2023-04-14T06:33:57.925Z,56.90
2023-04-14T06:36:25.926Z,56.75
2023-04-14T06:38:54.325Z,56.95
2023-04-14T06:41:23.777Z,56.87
2023-04-14T06:43:54.346Z,57.11
2023-04-14T06:46:23.530Z,57.29
2023-04-14T06:48:51.790Z,56.95
2023-04-14T06:51:19.703Z,56.97
2023-04-14T06:53:47.856Z,57.00
2023-04-14T06:56:16.031Z,57.44
2023-04-14T06:58:45.625Z,56.86
2023-04-14T07:01:16.929Z,57.30
2023-04-14T07:03:45.036Z,57.57
2023-04-14T07:06:17.048Z,57.48
2023-04-14T07:08:46.554Z,57.54
2023-04-14T07:11:15.311Z,57.40
2023-04-14T07:13:43.210Z,57.12
2023-04-14T07:16:12.980Z,57.39
2023-04-14T07:18:41.423Z,57.24
2023-04-14T07:21:11.224Z,57.38
2023-04-14T07:23:40.083Z,57.08
2023-04-14T07:26:09.225Z,57.17
2023-04-14T07:28:37.218Z,57.28
2023-04-14T07:31:08.940Z,57.32
2023-04-14T07:33:38.792Z,57.34
2023-04-14T07:36:08.100Z,57.75
2023-04-14T07:38:36.536Z,57.62
2023-04-14T07:41:05.354Z,57.63
2023-04-14T07:43:35.709Z,57.63
2023-04-14T07:46:07.617Z,57.48
2023-04-14T07:48:36.721Z,57.52
2023-04-14T07:51:06.316Z,58.04
2023-04-14T07:53:34.571Z,57.98
2023-04-14T07:56:02.568Z,58.14
2023-04-14T07:58:31.018Z,57.79
2023-04-14T08:00:59.018Z,58.05
2023-04-14T08:03:30.067Z,57.98
2023-04-14T08:05:59.874Z,58.10
2023-04-14T08:08:29.757Z,58.10
2023-04-14T08:10:58.556Z,58.05
2023-04-14T08:13:26.538Z,57.85
2023-04-14T08:15:54.779Z,57.88
2023-04-14T08:18:23.904Z,57.58
2023-04-14T08:20:52.062Z,57.59
2023-04-14T08:23:21.749Z,57.38
2023-04-14T08:25:52.648Z,57.43
2023-04-14T08:28:21.429Z,57.43
2023-04-14T08:30:51.594Z,57.21
2023-04-14T08:33:19.874Z,57.46
2023-04-14T08:35:56.219Z,57.40
2023-04-14T08:38:28.577Z,57.13
2023-04-14T08:40:58.155Z,57.02
2023-04-14T08:43:28.542Z,56.80
2023-04-14T08:45:56.874Z,56.97
2023-04-14T08:48:27.536Z,56.85
2023-04-14T08:50:59.549Z,56.40
2023-04-14T08:53:27.963Z,56.05
2023-04-14T08:55:58.583Z,56.28
2023-04-14T08:58:26.763Z,55.61
2023-04-14T09:00:54.959Z,55.43
2023-04-14T09:03:23.226Z,55.48
2023-04-14T09:05:51.328Z,55.44
2023-04-14T09:08:19.382Z,55.46
2023-04-14T09:10:47.784Z,55.14
2023-04-14T09:13:17.279Z,55.02
2023-04-14T09:15:47.574Z,55.07
2023-04-14T09:18:15.651Z,55.35
2023-04-14T09:20:44.356Z,54.86
2023-04-14T09:23:13.431Z,54.63
2023-04-14T09:25:43.080Z,54.18
2023-04-14T09:28:12.203Z,54.19
2023-04-14T09:30:45.509Z,54.25
2023-04-14T09:35:54.720Z,53.60
2023-04-14T09:38:33.051Z,53.13
2023-04-14T09:41:01.339Z,52.91
2023-04-14T09:43:30.496Z,53.06
2023-04-14T09:46:07.912Z,52.95
2023-04-14T09:48:37.469Z,52.44
2023-04-14T09:51:07.144Z,52.94
2023-04-14T09:53:36.008Z,52.53
2023-04-14T09:56:05.931Z,53.08
2023-04-14T09:58:35.426Z,52.68
2023-04-14T10:01:05.848Z,52.67
2023-04-14T10:03:36.716Z,53.00
2023-04-14T10:06:07.759Z,52.33
2023-04-14T10:08:41.050Z,52.37
2023-04-14T10:11:17.997Z,51.95
2023-04-14T10:13:46.788Z,52.15
2023-04-14T10:16:17.375Z,51.67
2023-04-14T10:18:47.574Z,50.57
2023-04-14T10:21:17.534Z,50.34
2023-04-14T10:23:47.347Z,50.67
2023-04-14T10:26:17.200Z,50.08
2023-04-14T10:28:46.228Z,49.86
2023-04-14T10:31:18.490Z,49.29
2023-04-14T10:33:46.685Z,48.44
2023-04-14T10:36:24.609Z,48.90
2023-04-14T10:39:05.531Z,48.74
2023-04-14T10:41:47.341Z,48.27
2023-04-14T10:44:38.156Z,47.80
2023-04-14T10:47:09.629Z,48.15
2023-04-14T10:49:38.931Z,47.08
2023-04-14T10:52:09.858Z,46.89
2023-04-14T10:54:53.728Z,46.74
2023-04-14T10:57:24.110Z,46.18
2023-04-14T10:59:56.041Z,46.64
2023-04-14T11:02:29.946Z,46.09
2023-04-14T11:05:04.448Z,46.31
2023-04-14T11:07:33.469Z,45.78
2023-04-14T11:10:05.337Z,46.02
2023-04-14T11:12:33.905Z,46.25
2023-04-14T11:15:06.433Z,45.69
2023-04-14T11:17:40.758Z,45.81
2023-04-14T11:20:15.501Z,45.73
2023-04-14T11:22:45.951Z,45.32
2023-04-14T11:25:16.081Z,45.13
2023-04-14T11:27:44.509Z,45.48
2023-04-14T11:30:16.010Z,45.34
2023-04-14T11:32:49.087Z,45.06
2023-04-14T11:35:19.013Z,44.69
2023-04-14T11:37:47.453Z,44.38
2023-04-14T11:40:16.689Z,44.09
2023-04-14T11:42:49.036Z,43.91
2023-04-14T11:45:19.230Z,43.80
2023-04-14T11:48:01.981Z,44.04
2023-04-14T11:50:32.577Z,43.97
2023-04-14T11:53:01.003Z,44.13
2023-04-14T11:55:28.990Z,43.92
2023-04-14T11:57:58.227Z,44.25
2023-04-14T12:00:26.620Z,43.56
2023-04-14T12:02:56.763Z,43.74
2023-04-14T12:05:31.318Z,43.70
2023-04-14T12:08:00.857Z,44.19
2023-04-14T12:10:32.661Z,44.19
2023-04-14T12:13:03.065Z,44.53
2023-04-14T12:15:32.363Z,44.48
2023-04-14T12:18:02.052Z,44.35
2023-04-14T12:20:32.016Z,44.88
2023-04-14T12:23:04.545Z,44.68
2023-04-14T12:25:35.029Z,44.82
2023-04-14T12:28:07.207Z,44.67
2023-04-14T12:30:42.348Z,44.99
2023-04-14T12:33:12.113Z,44.76
2023-04-14T12:35:44.496Z,44.67
2023-04-14T12:38:13.790Z,43.98
2023-04-14T12:40:42.633Z,43.99
2023-04-14T12:43:11.069Z,44.19
2023-04-14T12:45:43.777Z,43.83
2023-04-14T12:48:13.453Z,43.83
2023-04-14T12:50:43.628Z,43.30
2023-04-14T12:53:25.064Z,43.70
2023-04-14T12:56:07.141Z,44.13
2023-04-14T12:58:36.168Z,44.39
2023-04-14T13:01:05.199Z,44.65
2023-04-14T13:03:53.264Z,44.75
2023-04-14T13:06:23.189Z,44.99
2023-04-14T13:08:52.226Z,45.17
2023-04-14T13:11:22.415Z,45.48
2023-04-14T13:13:53.860Z,45.93
2023-04-14T13:16:22.358Z,45.96
2023-04-14T13:18:51.525Z,46.32
2023-04-14T13:21:19.596Z,45.99
2023-04-14T13:23:49.003Z,45.59
2023-04-14T13:26:22.470Z,45.45
2023-04-14T13:28:52.049Z,45.62
2023-04-14T13:31:20.617Z,45.11
2023-04-14T13:33:48.600Z,44.92
2023-04-14T13:36:18.592Z,44.99
2023-04-14T13:38:48.392Z,46.17
2023-04-14T13:41:19.467Z,45.83
2023-04-14T13:43:51.648Z,43.95
2023-04-14T13:46:20.722Z,42.69
2023-04-14T13:48:48.795Z,42.22
2023-04-14T13:51:16.949Z,41.64
2023-04-14T13:53:45.365Z,42.18
2023-04-14T13:56:14.769Z,42.10
2023-04-14T13:58:42.933Z,42.29
2023-04-14T14:01:12.187Z,42.73
2023-04-14T14:03:41.553Z,43.24
2023-04-14T14:06:09.877Z,43.79
2023-04-14T14:08:38.017Z,44.40
2023-04-14T14:11:06.814Z,44.23
2023-04-14T14:13:37.109Z,44.20
2023-04-14T14:16:06.872Z,44.33
2023-04-14T14:18:35.059Z,44.84
2023-04-14T14:21:03.024Z,45.40
2023-04-14T14:23:31.428Z,46.74
2023-04-14T14:25:59.437Z,47.57
2023-04-14T14:28:27.755Z,48.23
2023-04-14T14:30:57.378Z,48.78
2023-04-14T14:33:25.888Z,49.61
2023-04-14T14:35:54.650Z,49.98
2023-04-14T14:38:22.676Z,50.86
2023-04-14T14:40:52.167Z,50.96
2023-04-14T14:43:20.594Z,52.00
2023-04-14T14:45:48.780Z,52.57
2023-04-14T14:48:18.454Z,52.97
2023-04-14T14:50:46.526Z,53.50
2023-04-14T14:53:15.006Z,53.63
2023-04-14T14:55:43.244Z,53.84
2023-04-14T14:58:12.064Z,54.25
2023-04-14T15:00:40.110Z,54.12
2023-04-14T15:03:10.322Z,54.54
2023-04-14T15:05:40.125Z,54.56
2023-04-14T15:08:08.679Z,54.67
2023-04-14T15:10:37.162Z,54.72
2023-04-14T15:13:06.101Z,54.94
2023-04-14T15:15:35.493Z,54.85
2023-04-14T15:18:03.839Z,54.56
2023-04-14T15:20:32.045Z,55.16
2023-04-14T15:23:03.733Z,55.28
2023-04-14T15:25:31.801Z,55.34
2023-04-14T15:27:59.759Z,54.94
2023-04-14T15:30:28.573Z,54.87
2023-04-14T15:32:57.429Z,54.83
2023-04-14T15:35:26.303Z,54.19
2023-04-14T15:37:54.572Z,53.61
2023-04-14T15:40:24.207Z,53.54
2023-04-14T15:42:52.229Z,53.29
2023-04-14T15:45:21.565Z,52.97
2023-04-14T15:47:50.121Z,53.05
2023-04-14T15:50:19.130Z,52.90
2023-04-14T15:52:47.620Z,52.90
2023-04-14T15:55:17.937Z,53.17
2023-04-14T15:57:48.825Z,55.03
2023-04-14T16:00:17.687Z,55.43
2023-04-14T16:02:46.452Z,53.41
2023-04-14T16:05:15.004Z,50.72
2023-04-14T16:07:43.876Z,49.01
2023-04-14T16:10:12.295Z,47.79
2023-04-14T16:12:40.798Z,46.13
2023-04-14T16:15:11.227Z,45.89
2023-04-14T16:17:39.365Z,43.04
2023-04-14T16:20:08.211Z,41.58
2023-04-14T16:22:37.094Z,41.84
2023-04-14T16:25:05.825Z,42.65
2023-04-14T16:27:33.935Z,43.96
2023-04-14T16:30:02.032Z,44.59
2023-04-14T16:32:31.699Z,45.38
2023-04-14T16:34:59.827Z,45.60
2023-04-14T16:37:27.879Z,46.41
2023-04-14T16:39:56.012Z,45.63
2023-04-14T16:42:25.110Z,43.66
2023-04-14T16:44:53.173Z,43.20
2023-04-14T16:47:21.366Z,41.83
2023-04-14T16:49:51.739Z,39.80
2023-04-14T16:52:19.928Z,39.13
2023-04-14T16:54:47.965Z,39.16
2023-04-14T16:57:16.589Z,38.37
2023-04-14T16:59:46.962Z,37.96
2023-04-14T17:02:15.152Z,37.46
2023-04-14T17:04:45.690Z,36.06
2023-04-14T17:07:17.135Z,36.30
2023-04-14T17:09:47.150Z,36.19
2023-04-14T17:12:15.586Z,35.87
2023-04-14T17:14:45.327Z,37.69
2023-04-14T17:17:13.867Z,36.47
2023-04-14T17:19:41.892Z,35.74
2023-04-14T17:22:11.430Z,35.98
2023-04-14T17:24:42.863Z,35.84
2023-04-14T17:27:11.516Z,36.49
2023-04-14T17:29:41.106Z,36.84
2023-04-14T17:32:11.714Z,37.19
2023-04-14T17:34:42.471Z,37.47
2023-04-14T17:37:10.457Z,37.02
2023-04-14T17:39:38.949Z,36.78
2023-04-14T17:42:08.814Z,36.34
2023-04-14T17:44:38.230Z,37.04
2023-04-14T17:47:15.171Z,37.86
2023-04-14T17:49:43.860Z,37.86
2023-04-14T17:52:19.720Z,38.40
2023-04-14T17:54:52.732Z,39.01
2023-04-14T17:57:22.982Z,39.65
2023-04-14T17:59:53.396Z,40.22
2023-04-14T18:02:22.476Z,40.96
2023-04-14T18:04:50.578Z,41.41
2023-04-14T18:07:18.708Z,42.02
2023-04-14T18:09:47.646Z,42.53
2023-04-14T18:12:15.724Z,42.99
2023-04-14T18:14:45.176Z,43.41
2023-04-14T18:17:13.692Z,43.37
2023-04-14T18:19:41.619Z,43.59
2023-04-14T18:22:11.275Z,43.65
2023-04-14T18:29:47.233Z,44.06
2023-04-14T18:32:15.511Z,44.74
2023-04-14T18:34:44.034Z,45.04
2023-04-14T18:37:12.258Z,45.89
2023-04-14T18:39:40.412Z,45.91
2023-04-14T18:42:08.307Z,46.19
2023-04-14T18:44:37.687Z,46.59
2023-04-14T18:47:07.096Z,46.67
2023-04-14T18:49:37.440Z,47.07
2023-04-14T18:52:06.168Z,47.25
2023-04-14T18:54:34.701Z,47.32
2023-04-14T18:57:04.143Z,47.57
2023-04-14T18:59:33.996Z,47.79
2023-04-14T19:02:04.497Z,47.79
2023-04-14T19:04:35.874Z,47.97
2023-04-14T19:07:06.628Z,48.15
2023-04-14T19:09:36.181Z,48.52
2023-04-14T19:12:06.833Z,48.86
2023-04-14T19:14:38.355Z,49.08
2023-04-14T19:17:06.392Z,49.30
2023-04-14T19:19:36.493Z,49.48
2023-04-14T19:22:04.670Z,49.61
2023-04-14T19:24:32.650Z,49.73
2023-04-14T19:27:00.907Z,50.10
2023-04-14T19:29:29.066Z,50.17
2023-04-14T19:31:58.524Z,50.39
2023-04-14T19:34:27.165Z,50.22
2023-04-14T19:36:57.488Z,50.56
2023-04-14T19:39:25.667Z,50.46
2023-04-14T19:41:53.524Z,50.61
2023-04-14T19:44:23.729Z,50.85
2023-04-14T19:46:51.725Z,50.87
2023-04-14T19:49:28.612Z,50.92
2023-04-14T19:51:58.162Z,50.64
2023-04-14T19:54:26.531Z,50.85
2023-04-14T19:56:56.493Z,50.58
2023-04-14T19:59:54.588Z,50.67
2023-04-14T20:02:23.393Z,50.05
2023-04-14T20:04:57.110Z,50.15
2023-04-14T20:07:26.490Z,49.95
2023-04-14T20:09:55.980Z,49.31
2023-04-14T20:12:24.373Z,49.17
2023-04-14T20:14:52.672Z,48.88
2023-04-14T20:17:22.088Z,48.98
2023-04-14T20:19:51.473Z,48.83
2023-04-14T20:22:19.781Z,49.34
2023-04-14T20:24:55.180Z,49.50
2023-04-14T20:27:25.050Z,49.52
2023-04-14T20:29:54.909Z,49.57
2023-04-14T20:32:23.856Z,49.53
2023-04-14T20:34:57.263Z,49.55
2023-04-14T20:37:25.437Z,49.62
2023-04-14T20:39:55.449Z,49.49
2023-04-14T20:42:23.675Z,49.68
2023-04-14T20:44:52.256Z,49.52
2023-04-14T20:47:22.352Z,49.24
2023-04-14T20:49:50.722Z,48.92
2023-04-14T20:52:23.441Z,49.14
2023-04-14T20:54:51.852Z,48.83
2023-04-14T20:57:21.268Z,48.96
2023-04-14T20:59:49.835Z,49.10
2023-04-14T21:02:18.413Z,48.87
2023-04-14T21:04:47.820Z,49.17
2023-04-14T21:07:16.462Z,49.16
2023-04-14T21:09:44.691Z,48.97
2023-04-14T21:12:15.738Z,49.11
2023-04-14T21:15:31.079Z,49.24
2023-04-14T21:17:37.482Z,49.28
2023-04-14T21:20:09.090Z,49.13
2023-04-14T21:22:38.111Z,49.06
2023-04-14T21:25:07.359Z,48.95
2023-04-14T21:27:38.094Z,48.93
2023-04-14T21:30:13.830Z,48.69
2023-04-14T21:32:42.475Z,48.84
2023-04-14T21:35:12.235Z,49.44
2023-04-14T21:37:41.458Z,49.45
2023-04-14T21:40:13.281Z,50.43
2023-04-14T21:42:42.541Z,50.54
2023-04-14T21:45:12.299Z,51.19
2023-04-14T21:47:41.020Z,51.61
2023-04-14T21:50:12.441Z,51.65
2023-04-14T21:52:41.484Z,52.06
2023-04-14T21:55:10.416Z,52.20
2023-04-14T21:57:44.190Z,52.37
2023-04-14T22:00:21.278Z,52.59
2023-04-14T22:02:52.407Z,52.51
2023-04-14T22:05:21.186Z,52.79
2023-04-14T22:07:49.134Z,53.19
2023-04-14T22:10:18.715Z,52.97
2023-04-14T22:12:47.175Z,53.55
2023-04-14T22:15:16.875Z,53.38
2023-04-14T22:17:46.473Z,53.34
2023-04-14T22:20:20.272Z,53.58
2023-04-14T22:22:49.154Z,53.50
2023-04-14T22:25:17.645Z,53.57
2023-04-14T22:27:47.350Z,53.27
2023-04-14T22:30:15.928Z,53.74
2023-04-14T22:32:47.446Z,53.70
2023-04-14T22:35:16.520Z,53.50
2023-04-14T22:37:45.454Z,53.98
2023-04-14T22:40:13.871Z,54.02
2023-04-14T22:42:42.230Z,54.18
2023-04-14T22:45:12.565Z,54.14
2023-04-14T22:47:40.711Z,54.63
2023-04-14T22:50:13.040Z,54.07
2023-04-14T22:52:43.290Z,54.75
2023-04-14T22:55:11.795Z,54.62
2023-04-14T22:57:41.385Z,54.73
2023-04-14T23:00:12.288Z,54.95
2023-04-14T23:02:42.318Z,54.87
2023-04-14T23:05:14.495Z,55.06
2023-04-14T23:07:42.807Z,55.07
2023-04-14T23:10:11.934Z,55.31
2023-04-14T23:12:41.347Z,55.14
2023-04-14T23:15:10.398Z,55.09
2023-04-14T23:17:38.437Z,55.00
2023-04-14T23:20:10.346Z,55.38
2023-04-14T23:22:40.656Z,55.05
2023-04-14T23:25:09.394Z,55.40
2023-04-14T23:27:38.241Z,54.95
2023-04-14T23:30:10.247Z,54.80
2023-04-14T23:32:39.916Z,54.99
2023-04-14T23:35:09.347Z,55.03
2023-04-14T23:37:39.240Z,54.69
2023-04-14T23:40:09.228Z,54.45
2023-04-14T23:42:37.513Z,54.79
2023-04-14T23:45:09.235Z,54.89
2023-04-14T23:47:37.669Z,54.56
2023-04-14T23:50:08.807Z,54.61
2023-04-14T23:52:37.247Z,54.64
2023-04-14T23:55:08.114Z,54.86
2023-04-14T23:57:36.064Z,54.89
